createdAt,value
2017-02-03T00:00:42.391Z,62.14
2017-02-03T00:01:51.431Z,62.04
2017-02-03T00:03:00.460Z,62.43
2017-02-03T00:04:09.897Z,62.43
2017-02-03T00:05:18.923Z,62.72
2017-02-03T00:06:27.976Z,62.24
2017-02-03T00:07:36.998Z,62.24
2017-02-03T00:08:46.024Z,62.24
2017-02-03T00:09:55.045Z,62.53
2017-02-03T00:11:04.071Z,62.72
2017-02-03T00:12:13.433Z,62.82
2017-02-03T00:13:22.967Z,62.72
2017-02-03T00:14:32.383Z,62.92
2017-02-03T00:15:41.378Z,62.14
2017-02-03T00:16:50.359Z,62.82
2017-02-03T00:17:59.350Z,62.04
2017-02-03T00:19:08.331Z,62.72
2017-02-03T00:20:17.322Z,62.34
2017-02-03T00:21:26.730Z,62.82
2017-02-03T00:22:35.763Z,62.14
2017-02-03T00:23:44.790Z,62.04
2017-02-03T00:24:53.811Z,61.95
2017-02-03T00:26:02.814Z,62.43
2017-02-03T00:27:12.227Z,62.3
2017-02-03T00:28:21.217Z,62.5
2017-02-03T00:29:30.212Z,62.5
2017-02-03T00:30:39.204Z,62.4
2017-02-03T00:31:48.201Z,62.4
2017-02-03T00:32:57.230Z,62.3
2017-02-03T00:34:06.224Z,62.4
2017-02-03T00:35:15.207Z,62.21
2017-02-03T00:36:24.231Z,62.72
2017-02-03T00:37:33.228Z,62.79
2017-02-03T00:38:42.212Z,62.79
2017-02-03T00:39:51.210Z,62.59
2017-02-03T00:41:00.194Z,62.59
2017-02-03T00:42:09.193Z,62.85
2017-02-03T00:43:18.180Z,62.37
2017-02-03T00:44:27.188Z,61.98
2017-02-03T00:45:36.180Z,62.18
2017-02-03T00:46:45.165Z,62.47
2017-02-03T00:47:54.164Z,62.27
2017-02-03T00:49:03.157Z,62.37
2017-02-03T00:50:12.136Z,62.27
2017-02-03T00:51:21.128Z,61.89
2017-02-03T00:52:30.122Z,61.79
2017-02-03T00:53:39.115Z,61.79
2017-02-03T00:54:48.099Z,61.89
2017-02-03T00:55:57.093Z,61.89
2017-02-03T00:57:06.078Z,61.89
2017-02-03T00:58:15.077Z,61.5
2017-02-03T00:59:24.068Z,62.08
2017-02-03T01:00:33.464Z,61.6
2017-02-03T01:01:42.460Z,61.69
2017-02-03T01:02:51.447Z,61.79
2017-02-03T01:04:00.482Z,61.89
2017-02-03T01:05:09.473Z,61.89
2017-02-03T01:06:18.881Z,62.18
2017-02-03T01:07:27.872Z,61.69
2017-02-03T01:08:37.391Z,61.5
2017-02-03T01:09:46.398Z,61.69
2017-02-03T01:10:55.388Z,61.4
2017-02-03T01:12:04.805Z,61.6
2017-02-03T01:13:13.796Z,61.6
2017-02-03T01:14:22.776Z,61.3
2017-02-03T01:15:31.774Z,61.76
2017-02-03T01:16:40.781Z,61.21
2017-02-03T01:17:49.775Z,61.3
2017-02-03T01:18:58.765Z,61.4
2017-02-03T01:20:07.754Z,61.11
2017-02-03T01:21:16.744Z,61.27
2017-02-03T01:22:25.746Z,61.37
2017-02-03T01:23:34.740Z,61.08
2017-02-03T01:24:43.726Z,61.37
2017-02-03T01:25:52.710Z,61.08
2017-02-03T01:27:01.705Z,61.08
2017-02-03T01:28:10.700Z,61.27
2017-02-03T01:29:20.115Z,60.99
2017-02-03T01:30:29.107Z,61.18
2017-02-03T01:31:38.083Z,61.18
2017-02-03T01:32:47.076Z,61.18
2017-02-03T01:33:56.064Z,61.08
2017-02-03T01:35:05.049Z,61.18
2017-02-03T01:36:14.068Z,61.18
2017-02-03T01:37:23.483Z,60.89
2017-02-03T01:38:32.466Z,60.99
2017-02-03T01:39:41.461Z,60.99
2017-02-03T01:40:50.482Z,60.99
2017-02-03T01:41:59.478Z,61.08
2017-02-03T01:43:08.470Z,60.99
2017-02-03T01:44:17.494Z,60.79
2017-02-03T01:45:26.492Z,60.79
2017-02-03T01:46:35.897Z,60.5
2017-02-03T01:47:44.904Z,60.5
2017-02-03T01:48:54.289Z,60.79
2017-02-03T01:50:03.296Z,60.79
2017-02-03T01:51:12.315Z,60.6
2017-02-03T01:52:21.347Z,60.79
2017-02-03T01:53:30.370Z,60.6
2017-02-03T01:54:39.369Z,60.86
2017-02-03T01:55:48.363Z,60.79
2017-02-03T01:56:57.351Z,60.79
2017-02-03T01:58:06.330Z,60.76
2017-02-03T01:59:15.322Z,60.79
2017-02-03T02:00:24.319Z,60.67
2017-02-03T02:01:33.317Z,60.67
2017-02-03T02:02:42.305Z,60.76
2017-02-03T02:03:51.751Z,60.47
2017-02-03T02:05:00.734Z,60.96
2017-02-03T02:06:09.733Z,60.76
2017-02-03T02:07:18.732Z,60.67
2017-02-03T02:08:27.724Z,60.86
2017-02-03T02:09:37.115Z,60.47
2017-02-03T02:10:46.124Z,60.47
2017-02-03T02:11:55.102Z,60.67
2017-02-03T02:13:04.107Z,60.38
2017-02-03T02:14:13.504Z,60.38
2017-02-03T02:15:22.535Z,60.47
2017-02-03T02:16:31.509Z,60.67
2017-02-03T02:17:40.503Z,60.38
2017-02-03T02:18:49.490Z,60.47
2017-02-03T02:19:58.478Z,60.76
2017-02-03T02:21:07.470Z,61.34
2017-02-03T02:22:16.453Z,60.67
2017-02-03T02:23:25.454Z,60.47
2017-02-03T02:24:34.445Z,60.86
2017-02-03T02:25:43.457Z,60.57
2017-02-03T02:26:52.445Z,60.67
2017-02-03T02:28:01.470Z,61.05
2017-02-03T02:29:10.472Z,60.86
2017-02-03T02:30:19.467Z,60.67
2017-02-03T02:31:28.463Z,60.57
2017-02-03T02:32:37.449Z,60.76
2017-02-03T02:33:46.444Z,60.57
2017-02-03T02:34:55.453Z,60.67
2017-02-03T02:36:04.452Z,60.96
2017-02-03T02:37:13.447Z,60.67
2017-02-03T02:38:22.431Z,60.57
2017-02-03T02:39:31.427Z,60.47
2017-02-03T02:40:40.411Z,60.67
2017-02-03T02:41:49.412Z,60.76
2017-02-03T02:42:58.407Z,61.02
2017-02-03T02:44:07.444Z,60.44
2017-02-03T02:45:16.888Z,61.05
2017-02-03T02:46:25.868Z,60.67
2017-02-03T02:47:34.855Z,60.93
2017-02-03T02:48:43.850Z,60.35
2017-02-03T02:49:52.880Z,60.54
2017-02-03T02:51:01.869Z,60.76
2017-02-03T02:52:10.862Z,60.54
2017-02-03T02:53:19.845Z,60.73
2017-02-03T02:54:29.246Z,60.54
2017-02-03T02:55:38.249Z,60.54
2017-02-03T02:56:47.277Z,60.54
2017-02-03T02:57:56.271Z,60.44
2017-02-03T02:59:05.260Z,60.83
2017-02-03T03:00:14.276Z,60.44
2017-02-03T03:01:23.265Z,60.44
2017-02-03T03:02:32.256Z,60.73
2017-02-03T03:03:41.248Z,60.64
2017-02-03T03:04:50.241Z,60.35
2017-02-03T03:05:59.242Z,60.64
2017-02-03T03:07:08.229Z,60.25
2017-02-03T03:08:17.223Z,60.44
2017-02-03T03:09:26.241Z,60.35
2017-02-03T03:10:35.651Z,60.64
2017-02-03T03:11:44.627Z,60.44
2017-02-03T03:12:54.082Z,60.73
2017-02-03T03:14:03.092Z,60.35
2017-02-03T03:15:12.078Z,60.44
2017-02-03T03:16:21.056Z,60.35
2017-02-03T03:17:30.054Z,60.54
2017-02-03T03:18:39.047Z,60.73
2017-02-03T03:19:48.030Z,60.64
2017-02-03T03:20:57.031Z,60.64
2017-02-03T03:22:06.004Z,60.16
2017-02-03T03:23:14.986Z,60.44
2017-02-03T03:24:24.391Z,60.54
2017-02-03T03:25:33.380Z,60.73
2017-02-03T03:26:42.378Z,60.73
2017-02-03T03:27:51.361Z,60.16
2017-02-03T03:29:00.377Z,60.73
2017-02-03T03:30:09.367Z,60.54
2017-02-03T03:31:18.777Z,60.73
2017-02-03T03:32:27.766Z,60.54
2017-02-03T03:33:36.764Z,60.44
2017-02-03T03:34:45.763Z,60.73
2017-02-03T03:35:54.746Z,60.44
2017-02-03T03:37:03.740Z,60.73
2017-02-03T03:38:12.741Z,60.54
2017-02-03T03:39:21.748Z,60.64
2017-02-03T03:40:30.739Z,60.64
2017-02-03T03:41:39.735Z,60.64
2017-02-03T03:42:48.726Z,60.54
2017-02-03T03:43:57.713Z,60.73
2017-02-03T03:45:06.718Z,60.54
2017-02-03T03:46:15.704Z,60.64
2017-02-03T03:47:24.699Z,60.44
2017-02-03T03:48:33.685Z,60.64
2017-02-03T03:49:43.078Z,60.71
2017-02-03T03:50:52.067Z,60.71
2017-02-03T03:52:01.053Z,60.44
2017-02-03T03:53:10.047Z,60.41
2017-02-03T03:54:19.026Z,60.06
2017-02-03T03:55:28.013Z,60.51
2017-02-03T03:56:37.015Z,60.64
2017-02-03T03:57:46.009Z,59.93
2017-02-03T03:58:55.001Z,59.93
2017-02-03T04:00:03.992Z,59.86
2017-02-03T04:01:12.979Z,60.06
2017-02-03T04:02:22.002Z,60.31
2017-02-03T04:03:30.987Z,60.31
2017-02-03T04:04:40.393Z,60.13
2017-02-03T04:05:49.391Z,60.13
2017-02-03T04:06:58.374Z,60.22
2017-02-03T04:08:07.362Z,60.03
2017-02-03T04:09:16.762Z,60.22
2017-02-03T04:10:25.760Z,60.13
2017-02-03T04:11:34.766Z,59.93
2017-02-03T04:12:43.753Z,60.16
2017-02-03T04:13:52.735Z,59.93
2017-02-03T04:15:01.720Z,59.64
2017-02-03T04:16:10.712Z,59.83
2017-02-03T04:17:19.718Z,59.93
2017-02-03T04:18:28.722Z,60.22
2017-02-03T04:19:37.691Z,60.41
2017-02-03T04:20:46.673Z,59.93
2017-02-03T04:21:55.675Z,59.93
2017-02-03T04:23:04.662Z,60.41
2017-02-03T04:24:13.660Z,59.74
2017-02-03T04:25:22.644Z,59.93
2017-02-03T04:26:31.632Z,59.93
2017-02-03T04:27:41.016Z,59.83
2017-02-03T04:28:50.016Z,59.93
2017-02-03T04:29:59.005Z,59.83
2017-02-03T04:31:08.001Z,60.03
2017-02-03T04:32:16.982Z,59.93
2017-02-03T04:33:26.388Z,60.03
2017-02-03T04:34:35.379Z,59.93
2017-02-03T04:35:44.388Z,59.64
2017-02-03T04:36:53.370Z,59.93
2017-02-03T04:38:02.362Z,60.03
2017-02-03T04:39:11.353Z,60.03
2017-02-03T04:40:20.345Z,60.22
2017-02-03T04:41:29.338Z,59.93
2017-02-03T04:42:38.356Z,60.03
2017-02-03T04:43:47.348Z,59.93
2017-02-03T04:44:56.338Z,60.03
2017-02-03T04:46:05.334Z,60.03
2017-02-03T04:47:14.327Z,60.03
2017-02-03T04:48:23.311Z,60.22
2017-02-03T04:49:32.710Z,59.93
2017-02-03T04:50:42.153Z,60.13
2017-02-03T04:51:51.144Z,59.83
2017-02-03T04:53:00.129Z,60.13
2017-02-03T04:54:09.120Z,60.03
2017-02-03T04:55:18.107Z,60.03
2017-02-03T04:56:27.099Z,60.31
2017-02-03T04:57:36.097Z,60.13
2017-02-03T04:58:45.078Z,60.22
2017-02-03T04:59:54.079Z,60.03
2017-02-03T05:01:03.475Z,60.03
2017-02-03T05:02:12.467Z,60.03
2017-02-03T05:03:21.458Z,60.13
2017-02-03T05:04:30.450Z,59.93
2017-02-03T05:05:39.441Z,60.13
2017-02-03T05:06:48.425Z,59.93
2017-02-03T05:09:36.110Z,60.13
2017-02-03T05:10:45.096Z,60.13
2017-02-03T05:11:54.093Z,60.13
2017-02-03T05:13:03.081Z,60.03
2017-02-03T05:14:12.130Z,60.03
2017-02-03T05:15:21.322Z,60.03
2017-02-03T05:16:30.325Z,60.22
2017-02-03T05:17:39.338Z,60.31
2017-02-03T05:18:48.318Z,60.03
2017-02-03T05:19:57.326Z,60.13
2017-02-03T05:21:06.352Z,60.22
2017-02-03T05:22:15.337Z,59.55
2017-02-03T05:23:24.323Z,60.13
2017-02-03T05:24:33.320Z,60.13
2017-02-03T05:25:42.302Z,59.93
2017-02-03T05:26:51.297Z,60.03
2017-02-03T05:28:00.281Z,60.03
2017-02-03T05:29:09.265Z,59.74
2017-02-03T05:30:18.273Z,59.83
2017-02-03T05:31:27.259Z,59.83
2017-02-03T05:32:36.258Z,59.74
2017-02-03T05:33:45.244Z,60.03
2017-02-03T05:34:54.242Z,60.22
2017-02-03T05:36:03.225Z,59.55
2017-02-03T05:37:12.208Z,59.55
2017-02-03T05:38:21.202Z,59.93
2017-02-03T05:39:30.184Z,60.13
2017-02-03T05:40:39.190Z,60.13
2017-02-03T05:41:48.182Z,59.74
2017-02-03T05:42:57.173Z,59.35
2017-02-03T05:44:06.998Z,60.22
2017-02-03T05:45:16.017Z,59.64
2017-02-03T05:46:25.005Z,59.64
2017-02-03T05:47:33.990Z,59.74
2017-02-03T05:48:42.990Z,59.64
2017-02-03T05:49:51.966Z,59.83
2017-02-03T05:51:00.957Z,59.83
2017-02-03T05:52:09.960Z,59.74
2017-02-03T05:53:18.951Z,59.45
2017-02-03T05:54:27.936Z,60.22
2017-02-03T05:55:37.335Z,59.83
2017-02-03T05:56:46.320Z,59.83
2017-02-03T05:57:55.306Z,59.83
2017-02-03T05:59:04.305Z,59.74
2017-02-03T06:00:13.285Z,59.35
2017-02-03T06:01:22.695Z,59.83
2017-02-03T06:02:31.690Z,59.93
2017-02-03T06:03:40.679Z,59.74
2017-02-03T06:04:49.669Z,59.83
2017-02-03T06:05:58.650Z,59.64
2017-02-03T06:07:07.635Z,59.83
2017-02-03T06:08:16.622Z,59.93
2017-02-03T06:09:25.625Z,59.74
2017-02-03T06:10:34.614Z,59.74
2017-02-03T06:11:43.638Z,59.93
2017-02-03T06:12:52.627Z,59.64
2017-02-03T06:14:02.025Z,59.83
2017-02-03T06:15:11.019Z,59.83
2017-02-03T06:16:20.019Z,59.74
2017-02-03T06:17:29.009Z,59.83
2017-02-03T06:18:38.027Z,59.93
2017-02-03T06:19:47.024Z,59.64
2017-02-03T06:20:56.023Z,59.74
2017-02-03T06:22:05.007Z,60.03
2017-02-03T06:23:13.998Z,59.83
2017-02-03T06:24:22.976Z,59.74
2017-02-03T06:25:31.963Z,59.93
2017-02-03T06:26:40.959Z,59.83
2017-02-03T06:27:49.956Z,59.74
2017-02-03T06:28:58.937Z,59.64
2017-02-03T06:30:07.935Z,59.83
2017-02-03T06:31:16.943Z,59.83
2017-02-03T06:32:25.941Z,59.93
2017-02-03T06:33:34.942Z,59.64
2017-02-03T06:34:43.927Z,59.64
2017-02-03T06:35:52.917Z,59.74
2017-02-03T06:37:01.910Z,59.64
2017-02-03T06:38:10.907Z,59.64
2017-02-03T06:39:19.898Z,59.93
2017-02-03T06:40:28.894Z,59.64
2017-02-03T06:41:37.893Z,59.83
2017-02-03T06:42:46.881Z,59.74
2017-02-03T06:43:55.908Z,59.83
2017-02-03T06:45:04.896Z,59.93
2017-02-03T06:46:13.910Z,60.03
2017-02-03T06:47:22.899Z,59.83
2017-02-03T06:48:31.904Z,59.93
2017-02-03T06:49:41.407Z,59.74
2017-02-03T06:50:50.395Z,59.83
2017-02-03T06:51:59.385Z,59.74
2017-02-03T06:53:08.373Z,59.93
2017-02-03T06:54:17.382Z,59.83
2017-02-03T06:55:26.781Z,59.74
2017-02-03T06:56:35.755Z,59.64
2017-02-03T06:57:44.743Z,59.83
2017-02-03T06:58:54.144Z,59.93
2017-02-03T07:00:03.125Z,59.74
2017-02-03T07:01:12.542Z,59.64
2017-02-03T07:02:21.538Z,59.74
2017-02-03T07:03:30.964Z,59.55
2017-02-03T07:04:39.956Z,59.93
2017-02-03T07:05:48.948Z,59.93
2017-02-03T07:06:57.936Z,59.64
2017-02-03T07:08:06.922Z,59.45
2017-02-03T07:09:15.922Z,59.35
2017-02-03T07:10:24.919Z,59.35
2017-02-03T07:11:33.934Z,59.16
2017-02-03T07:12:42.921Z,59.35
2017-02-03T07:13:51.917Z,59.45
2017-02-03T07:15:00.910Z,59.25
2017-02-03T07:16:09.899Z,59.35
2017-02-03T07:17:18.929Z,59.35
2017-02-03T07:18:27.915Z,59.16
2017-02-03T07:19:36.904Z,59.25
2017-02-03T07:20:45.893Z,59.35
2017-02-03T07:21:54.894Z,59.35
2017-02-03T07:23:03.896Z,59.35
2017-02-03T07:24:12.908Z,59.35
2017-02-03T07:25:22.327Z,59.25
2017-02-03T07:26:31.325Z,59.35
2017-02-03T07:27:40.759Z,59.35
2017-02-03T07:28:49.748Z,59.55
2017-02-03T07:29:58.747Z,59.16
2017-02-03T07:31:07.729Z,59.55
2017-02-03T07:32:16.710Z,59.16
2017-02-03T07:33:25.717Z,59.55
2017-02-03T07:34:34.713Z,59.35
2017-02-03T07:35:44.110Z,59.35
2017-02-03T07:36:53.097Z,59.25
2017-02-03T07:38:02.076Z,59.35
2017-02-03T07:39:11.074Z,59.45
2017-02-03T07:40:20.070Z,59.35
2017-02-03T07:41:29.098Z,59.06
2017-02-03T07:42:38.089Z,58.97
2017-02-03T07:43:47.488Z,59.16
2017-02-03T07:44:56.463Z,58.97
2017-02-03T07:46:05.454Z,59.16
2017-02-03T07:47:14.442Z,59.06
2017-02-03T07:48:23.435Z,58.97
2017-02-03T07:49:32.437Z,59.16
2017-02-03T07:50:41.415Z,59.06
2017-02-03T07:51:50.410Z,58.87
2017-02-03T07:52:59.393Z,58.87
2017-02-03T07:54:08.387Z,59.06
2017-02-03T07:55:17.370Z,58.97
2017-02-03T07:56:26.369Z,59.45
2017-02-03T07:57:35.763Z,59.16
2017-02-03T07:58:44.765Z,59.06
2017-02-03T07:59:53.751Z,59.06
2017-02-03T08:01:02.736Z,59.06
2017-02-03T08:02:11.720Z,58.97
2017-02-03T08:03:20.716Z,58.97
2017-02-03T08:04:29.716Z,58.97
2017-02-03T08:05:38.700Z,58.87
2017-02-03T08:06:47.694Z,59.06
2017-02-03T08:07:56.684Z,59.16
2017-02-03T08:09:05.679Z,58.68
2017-02-03T08:10:14.675Z,58.87
2017-02-03T08:11:23.671Z,58.97
2017-02-03T08:12:32.664Z,58.97
2017-02-03T08:13:41.651Z,58.87
2017-02-03T08:14:50.645Z,58.87
2017-02-03T08:15:59.630Z,58.8
2017-02-03T08:17:08.670Z,59.64
2017-02-03T08:18:18.171Z,58.93
2017-02-03T08:19:27.169Z,58.5
2017-02-03T08:20:36.161Z,58.02
2017-02-03T08:21:45.141Z,58.14
2017-02-03T08:22:54.128Z,58.04
2017-02-03T08:24:03.156Z,58.07
2017-02-03T08:25:12.153Z,57.98
2017-02-03T08:26:21.147Z,57.71
2017-02-03T08:27:30.144Z,58.2
2017-02-03T08:28:39.124Z,59.01
2017-02-03T08:29:48.134Z,58.92
2017-02-03T08:30:57.170Z,59.38
2017-02-03T08:32:06.167Z,59.86
2017-02-03T08:33:15.149Z,60.72
2017-02-03T08:34:24.153Z,60.82
2017-02-03T08:35:33.569Z,61.66
2017-02-03T08:36:42.570Z,61.47
2017-02-03T08:37:51.562Z,61.76
2017-02-03T08:39:00.560Z,62.34
2017-02-03T08:40:09.552Z,61.76
2017-02-03T08:41:18.548Z,61.18
2017-02-03T08:42:27.993Z,61.08
2017-02-03T08:43:36.988Z,61.08
2017-02-03T08:44:46.399Z,61.18
2017-02-03T08:45:55.394Z,61.27
2017-02-03T08:47:04.442Z,60.99
2017-02-03T08:48:13.428Z,60.99
2017-02-03T08:49:22.430Z,60.6
2017-02-03T08:50:31.418Z,60.41
2017-02-03T08:51:40.416Z,60.89
2017-02-03T08:52:49.406Z,60.89
2017-02-03T08:53:58.403Z,61.08
2017-02-03T08:55:07.386Z,61.37
2017-02-03T08:56:16.380Z,61.66
2017-02-03T08:57:25.360Z,62.34
2017-02-03T08:58:34.360Z,62.73
2017-02-03T08:59:43.364Z,61.95
2017-02-03T09:00:52.760Z,61.76
2017-02-03T09:02:01.752Z,61.86
2017-02-03T09:03:11.157Z,61.37
2017-02-03T09:04:20.155Z,61.66
2017-02-03T09:05:29.161Z,61.18
2017-02-03T09:06:38.153Z,61.27
2017-02-03T09:07:47.561Z,61.18
2017-02-03T09:08:56.697Z,61.37
2017-02-03T09:10:05.701Z,61.18
2017-02-03T09:11:14.687Z,61.08
2017-02-03T09:12:23.682Z,61.08
2017-02-03T09:13:32.673Z,61.27
2017-02-03T09:14:41.692Z,61.08
2017-02-03T09:15:50.686Z,61.18
2017-02-03T09:16:59.683Z,60.89
2017-02-03T09:18:08.677Z,60.69
2017-02-03T09:19:17.665Z,60.69
2017-02-03T09:20:27.079Z,60.99
2017-02-03T09:21:36.076Z,60.99
2017-02-03T09:22:45.068Z,60.89
2017-02-03T09:23:54.058Z,60.79
2017-02-03T09:25:03.457Z,60.89
2017-02-03T09:26:12.439Z,60.89
2017-02-03T09:27:21.440Z,60.79
2017-02-03T09:28:30.431Z,60.89
2017-02-03T09:29:39.413Z,60.79
2017-02-03T09:30:48.836Z,60.79
2017-02-03T09:31:57.829Z,60.79
2017-02-03T09:33:06.818Z,60.89
2017-02-03T09:34:16.228Z,60.79
2017-02-03T09:35:25.204Z,60.89
2017-02-03T09:36:34.190Z,60.79
2017-02-03T09:37:43.185Z,60.5
2017-02-03T09:38:52.191Z,60.79
2017-02-03T09:40:01.187Z,60.69
2017-02-03T09:41:10.611Z,60.79
2017-02-03T09:42:20.005Z,60.89
2017-02-03T09:43:28.989Z,60.79
2017-02-03T09:44:37.991Z,60.79
2017-02-03T09:45:46.989Z,60.69
2017-02-03T09:46:55.979Z,60.69
2017-02-03T09:48:04.971Z,60.79
2017-02-03T09:49:13.959Z,60.89
2017-02-03T09:50:22.960Z,60.79
2017-02-03T09:51:31.945Z,60.69
2017-02-03T09:52:40.940Z,60.69
2017-02-03T09:53:49.968Z,60.79
2017-02-03T09:54:59.000Z,60.99
2017-02-03T09:56:08.007Z,60.69
2017-02-03T09:57:17.004Z,60.79
2017-02-03T09:58:26.032Z,60.79
2017-02-03T09:59:35.017Z,60.89
2017-02-03T10:00:44.424Z,60.79
2017-02-03T10:01:53.844Z,60.69
2017-02-03T10:03:02.822Z,60.89
2017-02-03T10:04:11.822Z,60.99
2017-02-03T10:05:20.815Z,60.79
2017-02-03T10:06:30.218Z,60.79
2017-02-03T10:07:39.215Z,60.69
2017-02-03T10:08:48.287Z,60.69
2017-02-03T10:09:57.275Z,60.79
2017-02-03T10:11:06.276Z,60.69
2017-02-03T10:12:15.264Z,60.89
2017-02-03T10:13:24.245Z,60.89
2017-02-03T10:14:33.242Z,60.5
2017-02-03T10:15:42.257Z,60.69
2017-02-03T10:16:51.667Z,60.89
2017-02-03T10:18:00.655Z,60.79
2017-02-03T10:19:09.651Z,60.79
2017-02-03T10:20:18.643Z,60.79
2017-02-03T10:21:27.641Z,60.89
2017-02-03T10:22:36.634Z,60.89
2017-02-03T10:23:45.614Z,60.69
2017-02-03T10:24:54.612Z,60.69
2017-02-03T10:26:04.024Z,60.79
2017-02-03T10:27:13.023Z,60.72
2017-02-03T10:28:22.056Z,60.72
2017-02-03T10:29:31.046Z,60.92
2017-02-03T10:30:40.464Z,61.11
2017-02-03T10:31:49.448Z,61.21
2017-02-03T10:32:58.442Z,60.72
2017-02-03T10:34:07.842Z,60.82
2017-02-03T10:35:16.833Z,60.72
2017-02-03T10:36:25.831Z,60.92
2017-02-03T10:37:35.228Z,60.92
2017-02-03T10:38:44.219Z,60.82
2017-02-03T10:39:53.213Z,61.11
2017-02-03T10:41:02.198Z,60.82
2017-02-03T10:42:11.188Z,60.72
2017-02-03T10:43:20.183Z,60.92
2017-02-03T10:44:29.169Z,60.63
2017-02-03T10:45:38.164Z,60.82
2017-02-03T10:46:47.163Z,60.82
2017-02-03T10:47:56.569Z,60.82
2017-02-03T10:49:05.558Z,60.92
2017-02-03T10:50:14.553Z,60.72
2017-02-03T10:51:23.568Z,60.82
2017-02-03T10:52:32.558Z,61.02
2017-02-03T10:53:41.553Z,60.92
2017-02-03T10:54:50.535Z,61.02
2017-02-03T10:55:59.531Z,60.82
2017-02-03T10:57:08.520Z,60.82
2017-02-03T10:58:17.502Z,60.82
2017-02-03T10:59:26.493Z,60.92
2017-02-03T11:00:35.475Z,60.89
2017-02-03T11:01:44.465Z,60.82
2017-02-03T11:02:53.448Z,60.63
2017-02-03T11:04:02.455Z,60.99
2017-02-03T11:05:11.443Z,61.6
2017-02-03T11:06:20.431Z,61.3
2017-02-03T11:07:29.416Z,61.69
2017-02-03T11:08:38.408Z,62.37
2017-02-03T11:09:48.530Z,62.18
2017-02-03T11:10:57.518Z,61.79
2017-02-03T11:12:06.639Z,61.89
2017-02-03T11:13:15.686Z,61.89
2017-02-03T11:14:24.765Z,62.08
2017-02-03T11:15:33.759Z,61.79
2017-02-03T11:16:42.761Z,62.01
2017-02-03T11:17:51.915Z,61.79
2017-02-03T11:19:00.901Z,61.79
2017-02-03T11:20:10.232Z,62.11
2017-02-03T11:21:19.718Z,61.98
2017-02-03T11:22:28.718Z,61.79
2017-02-03T11:23:37.693Z,61.89
2017-02-03T11:24:46.729Z,61.63
2017-02-03T11:25:55.708Z,61.69
2017-02-03T11:27:04.701Z,61.79
2017-02-03T11:28:13.695Z,61.89
2017-02-03T11:29:22.680Z,61.79
2017-02-03T11:30:31.665Z,61.69
2017-02-03T11:31:40.655Z,61.89
2017-02-03T11:32:49.648Z,61.89
2017-02-03T11:33:58.640Z,61.89
2017-02-03T11:35:07.624Z,61.4
2017-02-03T11:36:16.646Z,61.4
2017-02-03T11:37:25.623Z,61.98
2017-02-03T11:38:34.617Z,62.85
2017-02-03T11:39:43.609Z,62.37
2017-02-03T11:40:52.588Z,62.18
2017-02-03T11:42:01.590Z,61.79
2017-02-03T11:43:10.571Z,61.82
2017-02-03T11:44:21.121Z,61.79
2017-02-03T11:45:30.124Z,61.82
2017-02-03T11:46:39.110Z,61.82
2017-02-03T11:47:48.113Z,62.11
2017-02-03T11:48:57.116Z,62.11
2017-02-03T11:50:06.130Z,62.3
2017-02-03T11:51:15.129Z,62.5
2017-02-03T11:52:24.532Z,62.3
2017-02-03T11:53:33.536Z,62.11
2017-02-03T11:54:42.538Z,62.5
2017-02-03T11:55:51.537Z,62.59
2017-02-03T11:57:01.344Z,63.18
2017-02-03T11:58:10.345Z,63.18
2017-02-03T11:59:19.441Z,62.4
2017-02-03T12:00:29.287Z,62.69
2017-02-03T12:01:38.279Z,62.59
2017-02-03T12:02:47.296Z,62.69
2017-02-03T12:03:56.278Z,63.01
2017-02-03T12:05:05.275Z,62.79
2017-02-03T12:06:14.685Z,62.69
2017-02-03T12:07:23.681Z,63.18
2017-02-03T12:08:33.088Z,63.18
2017-02-03T12:09:42.075Z,63.46
2017-02-03T12:10:51.051Z,62.79
2017-02-03T12:12:00.056Z,63.66
2017-02-03T12:13:09.959Z,63.46
2017-02-03T12:14:19.806Z,63.66
2017-02-03T12:15:30.247Z,63.27
2017-02-03T12:16:39.696Z,63.37
2017-02-03T12:17:49.105Z,63.37
2017-02-03T12:18:58.095Z,63.18
2017-02-03T12:20:08.136Z,62.79
2017-02-03T12:21:17.309Z,63.37
2017-02-03T12:22:26.615Z,63.37
2017-02-03T12:23:36.386Z,63.31
2017-02-03T12:24:48.004Z,63.69
2017-02-03T12:26:00.458Z,63.21
2017-02-03T12:27:14.192Z,63.4
2017-02-03T12:28:23.221Z,63.4
2017-02-03T12:29:32.205Z,63.79
2017-02-03T12:30:41.210Z,63.4
2017-02-03T12:31:50.190Z,63.08
2017-02-03T12:32:59.592Z,63.49
2017-02-03T12:34:08.587Z,63.21
2017-02-03T12:35:17.573Z,62.92
2017-02-03T12:36:26.565Z,62.69
2017-02-03T12:37:35.603Z,63.56
2017-02-03T12:38:44.601Z,63.27
2017-02-03T12:39:53.591Z,64.27
2017-02-03T12:41:02.592Z,63.59
2017-02-03T12:42:12.424Z,63.69
2017-02-03T12:43:21.413Z,64.07
2017-02-03T12:44:30.417Z,64.17
2017-02-03T12:45:39.397Z,64.37
2017-02-03T12:46:48.375Z,64.14
2017-02-03T12:47:57.381Z,64.75
2017-02-03T12:49:06.356Z,64.75
2017-02-03T12:50:15.359Z,63.98
2017-02-03T12:51:24.365Z,64.85
2017-02-03T12:52:33.343Z,63.98
2017-02-03T12:53:42.375Z,64.17
2017-02-03T12:54:51.362Z,64.95
2017-02-03T12:56:00.352Z,64.47
2017-02-03T12:57:09.351Z,64.66
2017-02-03T12:58:18.347Z,64.85
2017-02-03T12:59:27.339Z,64.53
2017-02-03T13:00:36.332Z,64.95
2017-02-03T13:01:45.320Z,64.66
2017-02-03T13:02:54.300Z,65.14
2017-02-03T13:04:03.709Z,65.24
2017-02-03T13:05:13.124Z,65.34
2017-02-03T13:06:22.105Z,63.21
2017-02-03T13:07:31.098Z,60.17
2017-02-03T13:08:40.568Z,60.75
2017-02-03T13:09:49.565Z,61.24
2017-02-03T13:10:59.373Z,61.82
2017-02-03T13:12:08.369Z,62.01
2017-02-03T13:13:17.369Z,62.3
2017-02-03T13:14:26.768Z,62.3
2017-02-03T13:15:35.767Z,62.79
2017-02-03T13:16:44.757Z,62.59
2017-02-03T13:17:53.748Z,62.59
2017-02-03T13:19:02.737Z,62.69
2017-02-03T13:20:11.740Z,62.79
2017-02-03T13:21:20.730Z,62.98
2017-02-03T13:22:29.730Z,62.98
2017-02-03T13:23:38.709Z,63.56
2017-02-03T13:24:47.693Z,62.88
2017-02-03T13:25:56.694Z,63.27
2017-02-03T13:27:05.696Z,63.46
2017-02-03T13:28:14.678Z,63.18
2017-02-03T13:29:23.671Z,63.18
2017-02-03T13:30:32.647Z,63.27
2017-02-03T13:31:41.630Z,63.27
2017-02-03T13:32:50.628Z,63.27
2017-02-03T13:33:59.625Z,63.37
2017-02-03T13:35:08.602Z,63.37
2017-02-03T13:36:17.591Z,63.37
2017-02-03T13:37:26.580Z,63.76
2017-02-03T13:38:35.575Z,63.66
2017-02-03T13:39:44.563Z,63.76
2017-02-03T13:40:53.559Z,63.66
2017-02-03T13:42:02.548Z,63.56
2017-02-03T13:43:11.531Z,63.46
2017-02-03T13:44:20.528Z,63.46
2017-02-03T13:45:29.504Z,63.56
2017-02-03T13:46:38.508Z,63.66
2017-02-03T13:47:47.499Z,63.56
2017-02-03T13:48:56.485Z,63.76
2017-02-03T13:50:05.475Z,63.66
2017-02-03T13:51:14.474Z,63.53
2017-02-03T13:52:23.508Z,63.46
2017-02-03T13:53:32.509Z,63.56
2017-02-03T13:54:41.501Z,63.46
2017-02-03T13:55:50.475Z,63.76
2017-02-03T13:56:59.458Z,63.76
2017-02-03T13:58:08.456Z,64.11
2017-02-03T13:59:17.491Z,64.04
2017-02-03T14:00:26.471Z,63.37
2017-02-03T14:01:35.461Z,63.46
2017-02-03T14:02:44.447Z,63.66
2017-02-03T14:03:53.440Z,63.46
2017-02-03T14:05:02.444Z,63.27
2017-02-03T14:06:11.423Z,63.66
2017-02-03T14:07:20.413Z,63.76
2017-02-03T14:08:29.400Z,63.66
2017-02-03T14:09:38.396Z,63.56
2017-02-03T14:10:47.374Z,63.66
2017-02-03T14:11:56.372Z,63.46
2017-02-03T14:13:05.781Z,63.56
2017-02-03T14:14:14.788Z,63.46
2017-02-03T14:15:23.779Z,63.56
2017-02-03T14:16:32.773Z,63.56
2017-02-03T14:17:41.759Z,63.37
2017-02-03T14:18:50.757Z,63.66
2017-02-03T14:19:59.740Z,63.76
2017-02-03T14:21:08.739Z,63.56
2017-02-03T14:22:17.730Z,63.56
2017-02-03T14:23:26.723Z,63.56
2017-02-03T14:24:35.702Z,63.66
2017-02-03T14:25:44.694Z,63.76
2017-02-03T14:26:53.687Z,63.66
2017-02-03T14:28:03.084Z,63.66
2017-02-03T14:29:12.084Z,63.76
2017-02-03T14:30:21.079Z,63.56
2017-02-03T14:31:30.058Z,63.27
2017-02-03T14:32:39.048Z,63.27
2017-02-03T14:33:48.045Z,63.18
2017-02-03T14:34:57.030Z,63.18
2017-02-03T14:36:06.018Z,63.18
2017-02-03T14:37:15.005Z,63.46
2017-02-03T14:38:24.398Z,63.37
2017-02-03T14:39:33.391Z,63.46
2017-02-03T14:40:42.391Z,63.18
2017-02-03T14:41:51.380Z,63.46
2017-02-03T14:43:00.373Z,63.56
2017-02-03T14:44:09.357Z,63.56
2017-02-03T14:45:18.753Z,63.27
2017-02-03T14:46:28.158Z,63.46
2017-02-03T14:47:37.148Z,63.56
2017-02-03T14:48:46.139Z,63.56
2017-02-03T14:49:55.128Z,63.18
2017-02-03T14:51:04.541Z,63.56
2017-02-03T14:52:13.525Z,63.46